Time;durP1;ratioP1;P1;durP2;ratioP2;P2;SDS_P1;SDS_P2;PMS_P1;PMS_P2;Temp;Humidity;BMP_temperature;BMP_pressure;BME280_temperature;BME280_humidity;BME280_pressure;Samples;Min_cycle;Max_cycle;Signal;HPM_P1;HPM_P2
2024/04/08 00:02:22;;;;;;;;;;;;;;;;;;5458689;26;19929;-32
2024/04/08 00:04:47;;;;;;;;;;;;;;;;;;5458826;26;20364;-32
2024/04/08 00:07:13;;;;;;;;;;;;;;;;;;5458577;26;19985;-32
2024/04/08 00:09:39;;;;;;;;;;;;;;;;;;5458608;26;19998;-31
2024/04/08 00:12:05;;;;;;;;;;;;;;;;;;5458348;26;20249;-32
2024/04/08 00:14:31;;;;;;;;;;;;;;;;;;5458554;26;19934;-32
2024/04/08 00:16:57;;;;;;;;;;;;;;;;;;5458341;26;19936;-31
2024/04/08 00:19:23;;;;;;;;;;;;;;;;;;5458647;26;19928;-32
2024/04/08 00:21:49;;;;;;;;;;;;;;;;;;5458170;26;20001;-32
2024/04/08 00:24:16;;;;;;;;;;;;;;;;;;5458483;26;20356;-32
2024/04/08 00:26:42;;;;;;;;;;;;;;;;;;5458362;26;19936;-32
2024/04/08 00:29:08;;;;;;;;;;;;;;;;;;5458382;26;20002;-32
2024/04/08 00:31:34;;;;;;;;;;;;;;;;;;5458330;26;19929;-32
2024/04/08 00:34:00;;;;;;;;;;;;;;;;;;5457866;26;19929;-32
2024/04/08 00:36:26;;;;;;;;;;;;;;;;;;5458088;26;19936;-32
2024/04/08 00:38:52;;;;;;;;;;;;;;;;;;5458231;26;19929;-31
2024/04/08 00:41:18;;;;;;;;;;;;;;;;;;5457909;26;19935;-32
2024/04/08 00:43:44;;;;;;;;;;;;;;;;;;5458037;26;20317;-32
2024/04/08 00:46:10;;;;;;;;;;;;;;;;;;5458089;26;19928;-32
2024/04/08 00:48:36;;;;;;;;;;;;;;;;;;5457814;26;19997;-32
2024/04/08 00:51:02;;;;;;;;;;;;;;;;;;5457937;26;20346;-32
2024/04/08 00:53:28;;;;;;;;;;;;;;;;;;5459178;26;20731;-32
2024/04/08 00:55:54;;;;;;;;;;;;;;;;;;5461536;26;19936;-32
2024/04/08 00:58:20;;;;;;;;;;;;;;;;;;5461456;26;20240;-32
2024/04/08 01:00:46;;;;;;;;;;;;;;;;;;5461353;26;19928;-32
2024/04/08 01:03:12;;;;;;;;;;;;;;;;;;5461349;26;20356;-32
2024/04/08 01:05:38;;;;;;;;;;;;;;;;;;5461363;26;19932;-32
2024/04/08 01:08:04;;;;;;;;;;;;;;;;;;5461348;26;20376;-32
2024/04/08 01:10:30;;;;;;;;;;;;;;;;;;5459497;26;19948;-32
2024/04/08 01:12:56;;;;;;;;;;;;;;;;;;5461246;26;19929;-32
2024/04/08 01:15:22;;;;;;;;;;;;;;;;;;5460990;26;20413;-32
2024/04/08 01:17:48;;;;;;;;;;;;;;;;;;5460950;26;19929;-32
2024/04/08 01:20:14;;;;;;;;;;;;;;;;;;5461331;26;19935;-32
2024/04/08 01:22:40;;;;;;;;;;;;;;;;;;5461199;26;19935;-32
2024/04/08 01:25:06;;;;;;;;;;;;;;;;;;5461152;26;20249;-32
2024/04/08 01:27:32;;;;;;;;;;;;;;;;;;5460672;26;19929;-31
2024/04/08 01:29:58;;;;;;;;;;;;;;;;;;5461100;26;19928;-31
2024/04/08 01:32:24;;;;;;;;;;;;;;;;;;5460447;26;19929;-32
2024/04/08 01:34:50;;;;;;;;;;;;;;;;;;5460666;26;20321;-32
2024/04/08 01:37:15;;;;;;;;;;;;;;;;;;5460937;26;19935;-32
2024/04/08 01:39:41;;;;;;;;;;;;;;;;;;5460736;26;19928;-31
2024/04/08 01:42:07;;;;;;;;;;;;;;;;;;5460557;26;19937;-31
2024/04/08 01:44:33;;;;;;;;;;;;;;;;;;5460912;26;19929;-32
2024/04/08 01:46:59;;;;;;;;;;;;;;;;;;5460893;26;19936;-32
2024/04/08 01:49:27;;;;;;;;;;;;;;;;;;5460738;26;19943;-32
2024/04/08 01:51:53;;;;;;;;;;;;;;;;;;5460525;26;19929;-32
2024/04/08 01:54:19;;;;;;;;;;;;;;;;;;5460592;26;19928;-32
2024/04/08 01:56:47;;;;;;;;;;;;;;;;;;5460097;26;19929;-32
2024/04/08 01:59:12;;;;;;;;;;;;;;;;;;5460583;26;19929;-31
2024/04/08 02:01:38;;;;;;;;;;;;;;;;;;5460509;26;19929;-32
2024/04/08 02:04:04;;;;;;;;;;;;;;;;;;5460324;26;19928;-32
2024/04/08 02:06:30;;;;;;;;;;;;;;;;;;5459996;26;19936;-32
2024/04/08 02:08:56;;;;;;;;;;;;;;;;;;5460474;26;19935;-32
2024/04/08 02:11:22;;;;;;;;;;;;;;;;;;5460126;26;20275;-32
2024/04/08 02:13:48;;;;;;;;;;;;;;;;;;5460312;26;19997;-32
2024/04/08 02:16:14;;;;;;;;;;;;;;;;;;5460340;26;19928;-32
2024/04/08 02:18:40;;;;;;;;;;;;;;;;;;5460184;26;19928;-32
2024/04/08 02:21:06;;;;;;;;;;;;;;;;;;5460490;26;20321;-31
2024/04/08 02:23:32;;;;;;;;;;;;;;;;;;5460112;26;19935;-32
2024/04/08 02:25:58;;;;;;;;;;;;;;;;;;5460151;26;19928;-32
2024/04/08 02:28:24;;;;;;;;;;;;;;;;;;5459921;26;19972;-32
2024/04/08 02:30:51;;;;;;;;;;;;;;;;;;5459908;26;19928;-32
2024/04/08 02:33:17;;;;;;;;;;;;;;;;;;5459875;26;19928;-32
2024/04/08 02:35:43;;;;;;;;;;;;;;;;;;5460438;26;19935;-32
2024/04/08 02:38:09;;;;;;;;;;;;;;;;;;5460313;26;19928;-31
2024/04/08 02:40:36;;;;;;;;;;;;;;;;;;5460261;26;19929;-32
2024/04/08 02:43:02;;;;;;;;;;;;;;;;;;5459778;26;19997;-32
2024/04/08 02:45:28;;;;;;;;;;;;;;;;;;5460203;26;19936;-32
2024/04/08 02:47:54;;;;;;;;;;;;;;;;;;5460176;26;19929;-32
2024/04/08 02:50:20;;;;;;;;;;;;;;;;;;5459993;26;19928;-32
2024/04/08 02:52:46;;;;;;;;;;;;;;;;;;5459658;26;19936;-32
2024/04/08 02:55:12;;;;;;;;;;;;;;;;;;5459988;26;19928;-32
2024/04/08 02:57:38;;;;;;;;;;;;;;;;;;5460085;26;19974;-32
2024/04/08 03:00:04;;;;;;;;;;;;;;;;;;5460106;26;19928;-32
2024/04/08 03:02:30;;;;;;;;;;;;;;;;;;5459976;26;19936;-32
2024/04/08 03:04:56;;;;;;;;;;;;;;;;;;5459943;26;19997;-32
2024/04/08 03:07:22;;;;;;;;;;;;;;;;;;5459629;26;20251;-32
2024/04/08 03:09:48;;;;;;;;;;;;;;;;;;5460024;26;19929;-32
2024/04/08 03:12:14;;;;;;;;;;;;;;;;;;5459778;26;19940;-32
2024/04/08 03:14:40;;;;;;;;;;;;;;;;;;5459866;26;20247;-32
2024/04/08 03:17:06;;;;;;;;;;;;;;;;;;5458228;26;19944;-32
2024/04/08 03:19:32;;;;;;;;;;;;;;;;;;5457659;26;19974;-32
2024/04/08 03:21:58;;;;;;;;;;;;;;;;;;5459657;26;19928;-32
2024/04/08 03:24:23;;;;;;;;;;;;;;;;;;5459569;26;19928;-32
2024/04/08 03:26:49;;;;;;;;;;;;;;;;;;5459331;26;19940;-32
2024/04/08 03:29:15;;;;;;;;;;;;;;;;;;5459306;26;19929;-32
2024/04/08 03:31:41;;;;;;;;;;;;;;;;;;5459912;26;20306;-32
2024/04/08 03:34:07;;;;;;;;;;;;;;;;;;5459600;26;19935;-32
2024/04/08 03:36:33;;;;;;;;;;;;;;;;;;5459237;26;20281;-32
2024/04/08 03:38:59;;;;;;;;;;;;;;;;;;5459476;26;19936;-32
2024/04/08 03:41:25;;;;;;;;;;;;;;;;;;5459304;26;19928;-32
2024/04/08 03:43:51;;;;;;;;;;;;;;;;;;5459305;26;20256;-32
2024/04/08 03:46:17;;;;;;;;;;;;;;;;;;5459304;26;19978;-32
2024/04/08 03:48:43;;;;;;;;;;;;;;;;;;5459373;26;19929;-32
2024/04/08 03:51:09;;;;;;;;;;;;;;;;;;5459246;26;19997;-32
2024/04/08 03:53:35;;;;;;;;;;;;;;;;;;5459133;26;19935;-32
2024/04/08 03:56:01;;;;;;;;;;;;;;;;;;5459354;26;19928;-32
2024/04/08 03:58:27;;;;;;;;;;;;;;;;;;5458991;26;19936;-32
2024/04/08 04:00:53;;;;;;;;;;;;;;;;;;5458948;26;19928;-32
2024/04/08 04:03:19;;;;;;;;;;;;;;;;;;5459058;26;19935;-32
2024/04/08 04:05:45;;;;;;;;;;;;;;;;;;5459105;26;19940;-32
2024/04/08 04:08:11;;;;;;;;;;;;;;;;;;5459100;26;19928;-32
2024/04/08 04:10:37;;;;;;;;;;;;;;;;;;5459120;26;19974;-32
2024/04/08 04:13:03;;;;;;;;;;;;;;;;;;5458930;26;19936;-32
2024/04/08 04:15:28;;;;;;;;;;;;;;;;;;5458308;26;20323;-32
2024/04/08 04:17:54;;;;;;;;;;;;;;;;;;5458584;26;19997;-32
2024/04/08 04:20:21;;;;;;;;;;;;;;;;;;5458512;26;19928;-32
2024/04/08 04:22:47;;;;;;;;;;;;;;;;;;5458532;26;19935;-32
2024/04/08 04:25:13;;;;;;;;;;;;;;;;;;5458367;26;20000;-32
2024/04/08 04:27:39;;;;;;;;;;;;;;;;;;5457915;26;19936;-32
2024/04/08 04:30:05;;;;;;;;;;;;;;;;;;5458358;26;19929;-32
2024/04/08 04:32:31;;;;;;;;;;;;;;;;;;5458222;26;19998;-32
2024/04/08 04:34:57;;;;;;;;;;;;;;;;;;5458004;26;19936;-32
2024/04/08 04:37:23;;;;;;;;;;;;;;;;;;5458167;26;19935;-31
2024/04/08 04:39:49;;;;;;;;;;;;;;;;;;5458316;26;19944;-32
2024/04/08 04:42:15;;;;;;;;;;;;;;;;;;5458032;26;19935;-32
2024/04/08 04:44:41;;;;;;;;;;;;;;;;;;5457455;26;19935;-32
2024/04/08 04:47:07;;;;;;;;;;;;;;;;;;5457735;26;20368;-32
2024/04/08 04:49:33;;;;;;;;;;;;;;;;;;5458014;26;19970;-32
2024/04/08 04:51:59;;;;;;;;;;;;;;;;;;5457633;26;19940;-32
2024/04/08 04:54:25;;;;;;;;;;;;;;;;;;5457854;26;19935;-32
2024/04/08 04:56:51;;;;;;;;;;;;;;;;;;5457873;26;20256;-31
2024/04/08 04:59:17;;;;;;;;;;;;;;;;;;5457912;26;19936;-32
2024/04/08 05:01:43;;;;;;;;;;;;;;;;;;5457522;26;19929;-32
2024/04/08 05:04:09;;;;;;;;;;;;;;;;;;5457847;26;19935;-32
2024/04/08 05:06:35;;;;;;;;;;;;;;;;;;5457758;26;20266;-32
2024/04/08 05:09:02;;;;;;;;;;;;;;;;;;5457675;26;19933;-32
2024/04/08 05:11:28;;;;;;;;;;;;;;;;;;5457596;26;19929;-32
2024/04/08 05:13:54;;;;;;;;;;;;;;;;;;5455527;26;19929;-32
2024/04/08 05:16:20;;;;;;;;;;;;;;;;;;5457034;26;19937;-32
2024/04/08 05:18:46;;;;;;;;;;;;;;;;;;5457447;26;20355;-32
2024/04/08 05:21:12;;;;;;;;;;;;;;;;;;5457264;26;19933;-32
2024/04/08 05:23:44;;;;;;;;;;;;;;;;;;5457204;26;19932;-32
2024/04/08 05:26:10;;;;;;;;;;;;;;;;;;5457063;26;19940;-31
2024/04/08 05:28:36;;;;;;;;;;;;;;;;;;5457557;26;19928;-32
2024/04/08 05:31:02;;;;;;;;;;;;;;;;;;5457389;26;19997;-32
2024/04/08 05:33:28;;;;;;;;;;;;;;;;;;5456809;26;19928;-32
2024/04/08 05:35:54;;;;;;;;;;;;;;;;;;5457227;26;19928;-32
2024/04/08 05:38:20;;;;;;;;;;;;;;;;;;5457295;26;19940;-32
2024/04/08 05:40:46;;;;;;;;;;;;;;;;;;5459188;26;19936;-32
2024/04/08 05:43:15;;;;;;;;;;;;;;;;;;5460421;26;19929;-32
2024/04/08 05:45:41;;;;;;;;;;;;;;;;;;5460634;26;20008;-32
2024/04/08 05:48:07;;;;;;;;;;;;;;;;;;5460819;26;19940;-32
2024/04/08 05:50:33;;;;;;;;;;;;;;;;;;5460660;26;19935;-32
2024/04/08 05:52:59;;;;;;;;;;;;;;;;;;5460536;26;19928;-32
2024/04/08 05:55:25;;;;;;;;;;;;;;;;;;5460524;26;19940;-32
2024/04/08 05:57:51;;;;;;;;;;;;;;;;;;5460345;26;19936;-32
2024/04/08 06:00:18;;;;;;;;;;;;;;;;;;5460683;26;19929;-32
2024/04/08 06:02:49;;;;;;;;;;;;;;;;;;5460461;26;19929;-32
2024/04/08 06:05:15;;;;;;;;;;;;;;;;;;5460341;26;19929;-32
2024/04/08 06:07:41;;;;;;;;;;;;;;;;;;5460417;26;19998;-32
2024/04/08 06:10:08;;;;;;;;;;;;;;;;;;5460435;26;20408;-32
2024/04/08 06:12:34;;;;;;;;;;;;;;;;;;5460167;26;19939;-32
2024/04/08 06:15:00;;;;;;;;;;;;;;;;;;5460440;26;19941;-32
2024/04/08 06:17:26;;;;;;;;;;;;;;;;;;5460267;26;19932;-32
2024/04/08 06:19:52;;;;;;;;;;;;;;;;;;5460482;26;19932;-32
2024/04/08 06:22:18;;;;;;;;;;;;;;;;;;5460079;26;19978;-32
2024/04/08 06:24:44;;;;;;;;;;;;;;;;;;5460292;26;19939;-32
2024/04/08 06:27:10;;;;;;;;;;;;;;;;;;5459931;26;19928;-32
2024/04/08 06:29:36;;;;;;;;;;;;;;;;;;5460121;26;19941;-32
2024/04/08 06:32:03;;;;;;;;;;;;;;;;;;5459598;26;20823;-32
2024/04/08 06:34:29;;;;;;;;;;;;;;;;;;5459861;26;19962;-32
2024/04/08 06:36:55;;;;;;;;;;;;;;;;;;5459798;26;19933;-32
2024/04/08 06:39:21;;;;;;;;;;;;;;;;;;5460135;26;19929;-32
2024/04/08 06:41:47;;;;;;;;;;;;;;;;;;5459639;26;19934;-32
2024/04/08 06:44:13;;;;;;;;;;;;;;;;;;5459751;26;20364;-32
2024/04/08 06:46:39;;;;;;;;;;;;;;;;;;5459671;26;19929;-32
2024/04/08 06:49:05;;;;;;;;;;;;;;;;;;5459554;26;19936;-31
2024/04/08 06:51:31;;;;;;;;;;;;;;;;;;5459258;26;19935;-32
2024/04/08 06:53:58;;;;;;;;;;;;;;;;;;5458204;26;19997;-32
2024/04/08 06:56:24;;;;;;;;;;;;;;;;;;5459561;26;19939;-32
2024/04/08 06:58:49;;;;;;;;;;;;;;;;;;5459796;26;19928;-32
2024/04/08 07:01:16;;;;;;;;;;;;;;;;;;5459544;26;19997;-32
2024/04/08 07:03:42;;;;;;;;;;;;;;;;;;5459433;26;20015;-32
2024/04/08 07:06:08;;;;;;;;;;;;;;;;;;5459053;26;19941;-32
2024/04/08 07:08:34;;;;;;;;;;;;;;;;;;5459157;26;19928;-31
2024/04/08 07:10:59;;;;;;;;;;;;;;;;;;5459256;26;19929;-31
2024/04/08 07:13:25;;;;;;;;;;;;;;;;;;5459369;26;19932;-32
2024/04/08 07:15:51;;;;;;;;;;;;;;;;;;5459284;26;19940;-32
2024/04/08 07:18:17;;;;;;;;;;;;;;;;;;5459553;26;19929;-32
2024/04/08 07:20:43;;;;;;;;;;;;;;;;;;5458818;26;19928;-31
2024/04/08 07:23:09;;;;;;;;;;;;;;;;;;5459350;26;20341;-32
2024/04/08 07:25:35;;;;;;;;;;;;;;;;;;5459336;26;19928;-32
2024/04/08 07:28:01;;;;;;;;;;;;;;;;;;5459620;26;19929;-32
2024/04/08 07:30:27;;;;;;;;;;;;;;;;;;5459446;26;20368;-32
2024/04/08 07:32:54;;;;;;;;;;;;;;;;;;5458815;26;19936;-32
2024/04/08 07:35:21;;;;;;;;;;;;;;;;;;5459204;26;19936;-31
2024/04/08 07:37:47;;;;;;;;;;;;;;;;;;5459352;26;20252;-31
2024/04/08 07:40:12;;;;;;;;;;;;;;;;;;5459082;26;19928;-32
2024/04/08 07:42:39;;;;;;;;;;;;;;;;;;5459250;26;20316;-32
2024/04/08 07:45:05;;;;;;;;;;;;;;;;;;5459036;26;19936;-32
2024/04/08 07:47:31;;;;;;;;;;;;;;;;;;5459211;26;19940;-32
2024/04/08 07:49:57;;;;;;;;;;;;;;;;;;5459134;26;19936;-32
2024/04/08 07:52:23;;;;;;;;;;;;;;;;;;5458899;26;19937;-32
2024/04/08 07:54:49;;;;;;;;;;;;;;;;;;5459188;26;19928;-32
2024/04/08 07:57:15;;;;;;;;;;;;;;;;;;5458882;26;20285;-32
2024/04/08 07:59:41;;;;;;;;;;;;;;;;;;5459143;26;19996;-32
2024/04/08 08:02:07;;;;;;;;;;;;;;;;;;5458189;26;19938;-32
2024/04/08 08:04:33;;;;;;;;;;;;;;;;;;5458523;26;20503;-32
2024/04/08 08:06:59;;;;;;;;;;;;;;;;;;5458736;26;19928;-32
2024/04/08 08:09:25;;;;;;;;;;;;;;;;;;5458813;26;19928;-32
2024/04/08 08:11:51;;;;;;;;;;;;;;;;;;5458539;26;19929;-32
2024/04/08 08:14:17;;;;;;;;;;;;;;;;;;5456722;26;19935;-32
2024/04/08 08:16:43;;;;;;;;;;;;;;;;;;5458502;26;19928;-32
2024/04/08 08:19:09;;;;;;;;;;;;;;;;;;5458765;26;20372;-31
2024/04/08 08:21:35;;;;;;;;;;;;;;;;;;5458646;26;20349;-32
2024/04/08 08:24:02;;;;;;;;;;;;;;;;;;5458696;26;20388;-32
2024/04/08 08:26:28;;;;;;;;;;;;;;;;;;5458551;26;19940;-32
2024/04/08 08:28:54;;;;;;;;;;;;;;;;;;5458562;26;19936;-32
2024/04/08 08:31:20;;;;;;;;;;;;;;;;;;5457828;26;20356;-31
2024/04/08 08:33:46;;;;;;;;;;;;;;;;;;5458216;26;19965;-32
2024/04/08 08:36:12;;;;;;;;;;;;;;;;;;5458353;26;19929;-32
2024/04/08 08:38:38;;;;;;;;;;;;;;;;;;5458500;26;19935;-32
2024/04/08 08:41:04;;;;;;;;;;;;;;;;;;5456545;26;20413;-32
2024/04/08 08:43:30;;;;;;;;;;;;;;;;;;5458242;26;19936;-32
2024/04/08 08:45:56;;;;;;;;;;;;;;;;;;5457845;26;19928;-32
2024/04/08 08:48:22;;;;;;;;;;;;;;;;;;5458179;26;20001;-32
2024/04/08 08:50:48;;;;;;;;;;;;;;;;;;5458267;26;19936;-32
2024/04/08 08:53:14;;;;;;;;;;;;;;;;;;5457939;26;19939;-32
2024/04/08 08:55:40;;;;;;;;;;;;;;;;;;5458051;26;19940;-32
2024/04/08 08:58:06;;;;;;;;;;;;;;;;;;5457801;26;20328;-32
2024/04/08 09:00:32;;;;;;;;;;;;;;;;;;5458208;26;20396;-32
2024/04/08 09:02:58;;;;;;;;;;;;;;;;;;5457589;26;19956;-32
2024/04/08 09:05:24;;;;;;;;;;;;;;;;;;5457985;26;19929;-32
2024/04/08 09:07:50;;;;;;;;;;;;;;;;;;5457959;26;19956;-32
2024/04/08 09:10:16;;;;;;;;;;;;;;;;;;5457885;26;20363;-32
2024/04/08 09:12:42;;;;;;;;;;;;;;;;;;5457899;26;19936;-32
2024/04/08 09:15:08;;;;;;;;;;;;;;;;;;5459888;26;19937;-32
2024/04/08 09:17:34;;;;;;;;;;;;;;;;;;5460886;26;20000;-32
2024/04/08 09:20:03;;;;;;;;;;;;;;;;;;5460885;26;19928;-32
2024/04/08 09:22:29;;;;;;;;;;;;;;;;;;5460723;26;19929;-32
2024/04/08 09:24:55;;;;;;;;;;;;;;;;;;5461441;26;20371;-32
2024/04/08 09:27:23;;;;;;;;;;;;;;;;;;5461382;26;19929;-32
2024/04/08 09:29:48;;;;;;;;;;;;;;;;;;5461237;26;20001;-32
2024/04/08 09:32:14;;;;;;;;;;;;;;;;;;5460165;26;19940;-32
2024/04/08 09:34:40;;;;;;;;;;;;;;;;;;5460819;26;19935;-32
2024/04/08 09:37:06;;;;;;;;;;;;;;;;;;5460476;26;19940;-32
2024/04/08 09:39:32;;;;;;;;;;;;;;;;;;5460484;26;20390;-31
2024/04/08 09:41:59;;;;;;;;;;;;;;;;;;5460492;26;20060;-32
2024/04/08 09:44:30;;;;;;;;;;;;;;;;;;5459991;26;19969;-32
2024/04/08 09:46:56;;;;;;;;;;;;;;;;;;5460195;26;20351;-32
2024/04/08 09:49:22;;;;;;;;;;;;;;;;;;5460610;26;19928;-32
2024/04/08 09:51:48;;;;;;;;;;;;;;;;;;5460516;26;19937;-32
2024/04/08 09:54:14;;;;;;;;;;;;;;;;;;5460043;26;19936;-32
2024/04/08 09:56:41;;;;;;;;;;;;;;;;;;5460513;26;19929;-32
2024/04/08 09:59:08;;;;;;;;;;;;;;;;;;5460312;26;19935;-32
2024/04/08 10:01:34;;;;;;;;;;;;;;;;;;5460351;26;20240;-32
2024/04/08 10:04:00;;;;;;;;;;;;;;;;;;5460083;26;19928;-32
2024/04/08 10:06:26;;;;;;;;;;;;;;;;;;5460048;26;19928;-32
2024/04/08 10:08:52;;;;;;;;;;;;;;;;;;5460601;26;20239;-31
2024/04/08 10:11:18;;;;;;;;;;;;;;;;;;5460291;26;19929;-31
2024/04/08 10:13:44;;;;;;;;;;;;;;;;;;5460173;26;19940;-32
2024/04/08 10:16:10;;;;;;;;;;;;;;;;;;5460354;26;20386;-32
2024/04/08 10:18:36;;;;;;;;;;;;;;;;;;5460221;26;19940;-32
2024/04/08 10:21:02;;;;;;;;;;;;;;;;;;5460339;26;19928;-31
2024/04/08 10:23:28;;;;;;;;;;;;;;;;;;5460068;26;20001;-32
2024/04/08 10:25:55;;;;;;;;;;;;;;;;;;5459205;26;19936;-32
2024/04/08 10:28:25;;;;;;;;;;;;;;;;;;5460327;26;19935;-32
2024/04/08 10:30:51;;;;;;;;;;;;;;;;;;5460030;26;19928;-32
2024/04/08 10:33:17;;;;;;;;;;;;;;;;;;5459777;26;19997;-32
2024/04/08 10:35:43;;;;;;;;;;;;;;;;;;5460434;26;19928;-32
2024/04/08 10:38:09;;;;;;;;;;;;;;;;;;5460233;26;19932;-32
2024/04/08 10:40:35;;;;;;;;;;;;;;;;;;5460250;26;19935;-32
2024/04/08 10:43:01;;;;;;;;;;;;;;;;;;5460028;26;20317;-31
2024/04/08 10:45:27;;;;;;;;;;;;;;;;;;5459989;26;20001;-32
2024/04/08 10:47:53;;;;;;;;;;;;;;;;;;5459904;26;19928;-32
2024/04/08 10:50:19;;;;;;;;;;;;;;;;;;5459732;26;19940;-32
2024/04/08 10:52:45;;;;;;;;;;;;;;;;;;5459975;26;19935;-32
2024/04/08 10:55:11;;;;;;;;;;;;;;;;;;5460090;26;19928;-32
2024/04/08 10:57:37;;;;;;;;;;;;;;;;;;5459896;26;20345;-32
2024/04/08 11:00:04;;;;;;;;;;;;;;;;;;5459873;26;20101;-32
2024/04/08 11:02:32;;;;;;;;;;;;;;;;;;5459614;26;19935;-32
2024/04/08 11:04:58;;;;;;;;;;;;;;;;;;5459935;26;19935;-32
2024/04/08 11:07:24;;;;;;;;;;;;;;;;;;5460065;26;19936;-32
2024/04/08 11:09:50;;;;;;;;;;;;;;;;;;5457723;26;19997;-32
2024/04/08 11:12:16;;;;;;;;;;;;;;;;;;5459585;26;19940;-32
2024/04/08 11:14:42;;;;;;;;;;;;;;;;;;5459782;26;19960;-32
2024/04/08 11:17:08;;;;;;;;;;;;;;;;;;5459365;26;19928;-32
2024/04/08 11:19:37;;;;;;;;;;;;;;;;;;5459592;26;19935;-32
2024/04/08 11:22:03;;;;;;;;;;;;;;;;;;5459231;26;19935;-31
2024/04/08 11:24:30;;;;;;;;;;;;;;;;;;5459386;26;19929;-32
2024/04/08 11:26:56;;;;;;;;;;;;;;;;;;5459486;26;19935;-32
2024/04/08 11:29:22;;;;;;;;;;;;;;;;;;5459193;26;19928;-32
2024/04/08 11:31:48;;;;;;;;;;;;;;;;;;5459259;26;19936;-32
2024/04/08 11:34:14;;;;;;;;;;;;;;;;;;5459130;26;19933;-32
2024/04/08 11:36:39;;;;;;;;;;;;;;;;;;5459083;26;20402;-32
2024/04/08 11:39:05;;;;;;;;;;;;;;;;;;5457660;26;19936;-31
2024/04/08 11:41:31;;;;;;;;;;;;;;;;;;5458745;26;19935;-32
2024/04/08 11:43:57;;;;;;;;;;;;;;;;;;5458742;26;19928;-32
2024/04/08 11:46:24;;;;;;;;;;;;;;;;;;5458884;26;19935;-32
2024/04/08 11:48:50;;;;;;;;;;;;;;;;;;5458939;26;19929;-32
2024/04/08 11:51:16;;;;;;;;;;;;;;;;;;5458631;26;19936;-32
2024/04/08 11:53:42;;;;;;;;;;;;;;;;;;5458733;26;19937;-32
2024/04/08 11:56:08;;;;;;;;;;;;;;;;;;5456001;26;20001;-32
2024/04/08 11:58:34;;;;;;;;;;;;;;;;;;5458715;26;19935;-32
2024/04/08 12:01:02;;;;;;;;;;;;;;;;;;5458554;26;19928;-32
2024/04/08 12:03:28;;;;;;;;;;;;;;;;;;5458654;26;19932;-32
2024/04/08 12:05:54;;;;;;;;;;;;;;;;;;5458616;26;20000;-32
2024/04/08 12:08:20;;;;;;;;;;;;;;;;;;5458756;26;20374;-31
2024/04/08 12:10:46;;;;;;;;;;;;;;;;;;5458476;26;20274;-32
2024/04/08 12:13:12;;;;;;;;;;;;;;;;;;5458463;26;20369;-32
2024/04/08 12:15:38;;;;;;;;;;;;;;;;;;5458586;26;19928;-32
2024/04/08 12:18:04;;;;;;;;;;;;;;;;;;5458589;26;19935;-32
2024/04/08 12:20:30;;;;;;;;;;;;;;;;;;5458147;26;19928;-32
2024/04/08 12:22:56;;;;;;;;;;;;;;;;;;5458452;26;19936;-32
2024/04/08 12:25:22;;;;;;;;;;;;;;;;;;5456251;26;19997;-32
2024/04/08 12:27:48;;;;;;;;;;;;;;;;;;5458340;26;19928;-32
2024/04/08 12:30:14;;;;;;;;;;;;;;;;;;5457610;26;19929;-32
2024/04/08 12:32:40;;;;;;;;;;;;;;;;;;5457796;26;19929;-31
2024/04/08 12:35:07;;;;;;;;;;;;;;;;;;5458246;26;19941;-32
2024/04/08 12:37:33;;;;;;;;;;;;;;;;;;5458140;26;19928;-32
2024/04/08 12:40:00;;;;;;;;;;;;;;;;;;5457743;26;19928;-32
2024/04/08 12:42:25;;;;;;;;;;;;;;;;;;5457905;26;19943;-31
2024/04/08 12:44:51;;;;;;;;;;;;;;;;;;5458108;26;20429;-32
2024/04/08 12:47:17;;;;;;;;;;;;;;;;;;5458067;26;19934;-31
2024/04/08 12:49:43;;;;;;;;;;;;;;;;;;5459493;26;19983;-32
2024/04/08 12:52:09;;;;;;;;;;;;;;;;;;5461031;26;20292;-32
2024/04/08 12:54:35;;;;;;;;;;;;;;;;;;5461332;26;19931;-32
2024/04/08 12:57:01;;;;;;;;;;;;;;;;;;5461227;26;19974;-32
2024/04/08 12:59:27;;;;;;;;;;;;;;;;;;5461426;26;19935;-32
2024/04/08 13:01:53;;;;;;;;;;;;;;;;;;5461171;26;19935;-32
2024/04/08 13:04:19;;;;;;;;;;;;;;;;;;5461293;26;19974;-32
2024/04/08 13:06:45;;;;;;;;;;;;;;;;;;5461395;26;19929;-32
2024/04/08 13:09:12;;;;;;;;;;;;;;;;;;5461235;26;19997;-32
2024/04/08 13:11:37;;;;;;;;;;;;;;;;;;5460987;26;20749;-32
2024/04/08 13:14:04;;;;;;;;;;;;;;;;;;5461104;26;20364;-32
2024/04/08 13:16:30;;;;;;;;;;;;;;;;;;5461132;26;19974;-31
2024/04/08 13:18:56;;;;;;;;;;;;;;;;;;5461140;26;20364;-32
2024/04/08 13:21:22;;;;;;;;;;;;;;;;;;5461082;26;19935;-31
2024/04/08 13:23:48;;;;;;;;;;;;;;;;;;5461005;26;19936;-32
2024/04/08 13:26:14;;;;;;;;;;;;;;;;;;5461063;26;19929;-32
2024/04/08 13:28:40;;;;;;;;;;;;;;;;;;5460527;26;19929;-32
2024/04/08 13:31:06;;;;;;;;;;;;;;;;;;5460828;26;19935;-31
2024/04/08 13:33:32;;;;;;;;;;;;;;;;;;5460591;26;20267;-32
2024/04/08 13:35:59;;;;;;;;;;;;;;;;;;5461075;26;19949;-32
2024/04/08 13:38:25;;;;;;;;;;;;;;;;;;5458591;26;19935;-32
2024/04/08 13:40:51;;;;;;;;;;;;;;;;;;5460904;26;19932;-31
2024/04/08 13:43:16;;;;;;;;;;;;;;;;;;5460562;26;19929;-32
2024/04/08 13:45:43;;;;;;;;;;;;;;;;;;5460521;26;19940;-32
2024/04/08 13:48:10;;;;;;;;;;;;;;;;;;5461061;26;19936;-32
2024/04/08 13:50:36;;;;;;;;;;;;;;;;;;5460868;26;19997;-32
2024/04/08 13:53:02;;;;;;;;;;;;;;;;;;5460652;26;19929;-32
2024/04/08 13:55:28;;;;;;;;;;;;;;;;;;5460824;26;19929;-32
2024/04/08 13:57:54;;;;;;;;;;;;;;;;;;5460493;26;19936;-32
2024/04/08 14:00:20;;;;;;;;;;;;;;;;;;5459843;26;19996;-32
2024/04/08 14:02:46;;;;;;;;;;;;;;;;;;5459537;26;19936;-32
2024/04/08 14:05:12;;;;;;;;;;;;;;;;;;5458386;26;20002;-32
2024/04/08 14:07:38;;;;;;;;;;;;;;;;;;5460669;26;19940;-31
2024/04/08 14:10:04;;;;;;;;;;;;;;;;;;5459388;26;19928;-32
2024/04/08 14:12:31;;;;;;;;;;;;;;;;;;5458774;26;19928;-31
2024/04/08 14:14:57;;;;;;;;;;;;;;;;;;5460190;26;19978;-32
2024/04/08 14:17:23;;;;;;;;;;;;;;;;;;5460564;26;20375;-32
2024/04/08 14:19:49;;;;;;;;;;;;;;;;;;5460598;26;19935;-31
2024/04/08 14:22:15;;;;;;;;;;;;;;;;;;5460347;26;20004;-32
2024/04/08 14:24:41;;;;;;;;;;;;;;;;;;5460183;26;20367;-32
2024/04/08 14:27:10;;;;;;;;;;;;;;;;;;5459926;26;20051;-32
2024/04/08 14:29:36;;;;;;;;;;;;;;;;;;5460107;26;19997;-32
2024/04/08 14:32:02;;;;;;;;;;;;;;;;;;5460278;26;19928;-32
2024/04/08 14:34:28;;;;;;;;;;;;;;;;;;5460105;26;19928;-32
2024/04/08 14:36:54;;;;;;;;;;;;;;;;;;5460112;26;20251;-32
2024/04/08 14:39:21;;;;;;;;;;;;;;;;;;5460029;26;19928;-31
2024/04/08 14:41:47;;;;;;;;;;;;;;;;;;5460023;26;20347;-32
2024/04/08 14:44:13;;;;;;;;;;;;;;;;;;5459760;26;19936;-32
2024/04/08 14:46:39;;;;;;;;;;;;;;;;;;5460278;26;19934;-32
2024/04/08 14:49:05;;;;;;;;;;;;;;;;;;5459942;26;19928;-32
2024/04/08 14:51:31;;;;;;;;;;;;;;;;;;5460276;26;19928;-32
2024/04/08 14:53:57;;;;;;;;;;;;;;;;;;5459982;26;19935;-32
2024/04/08 14:56:23;;;;;;;;;;;;;;;;;;5459987;26;19928;-32
2024/04/08 14:58:48;;;;;;;;;;;;;;;;;;5459879;26;20353;-32
2024/04/08 15:01:15;;;;;;;;;;;;;;;;;;5459927;26;19936;-32
2024/04/08 15:03:41;;;;;;;;;;;;;;;;;;5459691;26;19934;-32
2024/04/08 15:06:07;;;;;;;;;;;;;;;;;;5459838;26;19929;-31
2024/04/08 15:08:33;;;;;;;;;;;;;;;;;;5459756;26;19929;-32
2024/04/08 15:11:02;;;;;;;;;;;;;;;;;;5459569;26;19929;-31
2024/04/08 15:13:28;;;;;;;;;;;;;;;;;;5459082;26;19928;-32
2024/04/08 15:15:54;;;;;;;;;;;;;;;;;;5459342;26;19935;-32
2024/04/08 15:18:20;;;;;;;;;;;;;;;;;;5459529;26;20007;-32
2024/04/08 15:20:46;;;;;;;;;;;;;;;;;;5459558;26;19932;-31
2024/04/08 15:23:12;;;;;;;;;;;;;;;;;;5459294;26;19935;-32
2024/04/08 15:25:38;;;;;;;;;;;;;;;;;;5459685;26;20245;-32
2024/04/08 15:28:07;;;;;;;;;;;;;;;;;;5459729;26;19940;-32
2024/04/08 15:30:33;;;;;;;;;;;;;;;;;;5459564;26;19961;-32
2024/04/08 15:32:59;;;;;;;;;;;;;;;;;;5459150;26;19990;-31
2024/04/08 15:35:25;;;;;;;;;;;;;;;;;;5458237;26;19928;-32
2024/04/08 15:37:52;;;;;;;;;;;;;;;;;;5457970;26;19932;-32
2024/04/08 15:40:18;;;;;;;;;;;;;;;;;;5457882;26;19935;-32
2024/04/08 15:42:44;;;;;;;;;;;;;;;;;;5458816;26;19928;-32
2024/04/08 15:45:13;;;;;;;;;;;;;;;;;;5458633;26;20383;-32
2024/04/08 15:47:40;;;;;;;;;;;;;;;;;;5458803;26;19928;-32
2024/04/08 15:50:06;;;;;;;;;;;;;;;;;;5458955;26;20279;-32
2024/04/08 15:52:32;;;;;;;;;;;;;;;;;;5458651;26;19928;-32
2024/04/08 15:54:58;;;;;;;;;;;;;;;;;;5458959;26;19929;-32
2024/04/08 15:57:24;;;;;;;;;;;;;;;;;;5458533;26;19939;-31
2024/04/08 15:59:50;;;;;;;;;;;;;;;;;;5458871;26;19928;-32
2024/04/08 16:02:16;;;;;;;;;;;;;;;;;;5458684;26;20036;-31
2024/04/08 16:04:42;;;;;;;;;;;;;;;;;;5458851;26;19940;-31
2024/04/08 16:07:08;;;;;;;;;;;;;;;;;;5458446;26;19928;-32
2024/04/08 16:09:34;;;;;;;;;;;;;;;;;;5458711;26;19935;-31
2024/04/08 16:12:00;;;;;;;;;;;;;;;;;;5458547;26;19935;-32
2024/04/08 16:14:26;;;;;;;;;;;;;;;;;;5458722;26;19935;-32
2024/04/08 16:16:52;;;;;;;;;;;;;;;;;;5457732;26;19939;-32
2024/04/08 16:19:18;;;;;;;;;;;;;;;;;;5458310;26;20359;-31
2024/04/08 16:21:44;;;;;;;;;;;;;;;;;;5458421;26;19961;-31
2024/04/08 16:24:10;;;;;;;;;;;;;;;;;;5457318;26;19929;-31
2024/04/08 16:26:36;;;;;;;;;;;;;;;;;;5458202;26;19929;-32
2024/04/08 16:29:02;;;;;;;;;;;;;;;;;;5444720;26;19933;-32
2024/04/08 16:31:31;;;;;;;;;;;;;;;;;;5422174;26;20006;-32
2024/04/08 16:33:57;;;;;;;;;;;;;;;;;;5422213;26;20388;-32
2024/04/08 16:36:27;;;;;;;;;;;;;;;;;;5421036;26;20156;-31
2024/04/08 16:38:53;;;;;;;;;;;;;;;;;;5421912;26;19948;-31